Wetterdaten: Sonntag, 29.11.2015
Datum Zeit Temp. A. Feuchte A. Luftdruck Regen Wind Richtung Richtung Sonnenschein ET UV Solar Taupunkt Windchill Windben Empfang
29.11.2015 00:00 3,3 C 85 % 1021,3 hPa 0,0 l/m 14,2 km/h (3 Bft) W-SW 254 0 min 0,000 mm 0,0 UV-I 0 W/m 1,0 C -2,5 C 22,5 km/h (4 Bft) 96,67 %
29.11.2015 00:05 3,3 C 85 % 1021,3 hPa 0,0 l/m 12,5 km/h (3 Bft) W-SW 250 0 min 0,000 mm 0,0 UV-I 0 W/m 1,0 C -1,5 C 24,1 km/h (4 Bft) 96,26 %
29.11.2015 00:10 3,2 C 85 % 1021,4 hPa 0,0 l/m 14,6 km/h (3 Bft) W-SW 240 0 min 0,000 mm 0,0 UV-I 0 W/m 0,9 C -2,9 C 25,7 km/h (4 Bft) 96,83 %
29.11.2015 00:15 3,1 C 85 % 1021,4 hPa 0,0 l/m 13,7 km/h (3 Bft) SW 228 0 min 0,000 mm 0,0 UV-I 0 W/m 0,8 C -2,5 C 30,6 km/h (5 Bft) 96,43 %
29.11.2015 00:20 2,9 C 87 % 1021,4 hPa 0,0 l/m 14,1 km/h (3 Bft) SW 227 0 min 0,000 mm 0,0 UV-I 0 W/m 1,0 C -3,0 C 22,5 km/h (4 Bft) 99,19 %
29.11.2015 00:25 2,7 C 88 % 1021,4 hPa 0,0 l/m 14,0 km/h (3 Bft) S-SW 211 0 min 0,000 mm 0,0 UV-I 0 W/m 0,9 C -3,1 C 24,1 km/h (4 Bft) 99,12 %
29.11.2015 00:30 2,6 C 88 % 1021,4 hPa 0,0 l/m 13,9 km/h (3 Bft) SW 217 0 min 0,000 mm 0,0 UV-I 0 W/m 0,8 C -3,2 C 24,1 km/h (4 Bft) 100,00 %
29.11.2015 00:35 2,4 C 89 % 1021,5 hPa 0,0 l/m 12,8 km/h (3 Bft) SW 229 0 min 0,000 mm 0,0 UV-I 0 W/m 0,8 C -2,8 C 24,1 km/h (4 Bft) 98,21 %
29.11.2015 00:40 2,4 C 89 % 1021,5 hPa 0,0 l/m 12,7 km/h (3 Bft) S-SO 165 0 min 0,000 mm 0,0 UV-I 0 W/m 0,8 C -2,7 C 24,1 km/h (4 Bft) 99,07 %
29.11.2015 00:45 2,3 C 89 % 1021,5 hPa 0,0 l/m 11,7 km/h (2 Bft) W 267 0 min 0,000 mm 0,0 UV-I 0 W/m 0,7 C -2,1 C 19,3 km/h (3 Bft) 99,23 %
29.11.2015 00:50 2,3 C 89 % 1021,6 hPa 0,0 l/m 12,5 km/h (3 Bft) W-SW 240 0 min 0,000 mm 0,0 UV-I 0 W/m 0,7 C -2,7 C 19,3 km/h (3 Bft) 99,12 %
29.11.2015 00:55 2,3 C 89 % 1021,5 hPa 0,0 l/m 12,5 km/h (3 Bft) W-SW 238 0 min 0,000 mm 0,0 UV-I 0 W/m 0,7 C -2,7 C 19,3 km/h (3 Bft) 99,17 %
29.11.2015 01:00 2,3 C 89 % 1021,4 hPa 0,0 l/m 13,2 km/h (3 Bft) SW 215 0 min 0,025 mm 0,0 UV-I 0 W/m 0,7 C -3,1 C 20,9 km/h (4 Bft) 98,31 %
29.11.2015 01:05 2,4 C 89 % 1021,4 hPa 0,0 l/m 13,0 km/h (3 Bft) W-SW 246 0 min 0,000 mm 0,0 UV-I 0 W/m 0,8 C -2,9 C 19,3 km/h (3 Bft) 100,00 %
29.11.2015 01:10 2,4 C 89 % 1021,5 hPa 0,0 l/m 12,9 km/h (3 Bft) W-SW 250 0 min 0,000 mm 0,0 UV-I 0 W/m 0,8 C -2,8 C 20,9 km/h (4 Bft) 99,13 %
29.11.2015 01:15 2,4 C 89 % 1021,6 hPa 0,0 l/m 12,7 km/h (3 Bft) S-SW 213 0 min 0,000 mm 0,0 UV-I 0 W/m 0,8 C -2,7 C 19,3 km/h (3 Bft) 98,26 %
29.11.2015 01:20 2,3 C 89 % 1021,5 hPa 0,0 l/m 10,9 km/h (2 Bft) S-SW 209 0 min 0,000 mm 0,0 UV-I 0 W/m 0,7 C -1,6 C 17,7 km/h (3 Bft) 99,15 %
29.11.2015 01:25 2,3 C 89 % 1021,5 hPa 0,0 l/m 10,2 km/h (2 Bft) W-SW 244 0 min 0,000 mm 0,0 UV-I 0 W/m 0,7 C -1,1 C 19,3 km/h (3 Bft) 99,15 %
29.11.2015 01:30 2,2 C 89 % 1021,5 hPa 0,0 l/m 11,1 km/h (2 Bft) W-SW 240 0 min 0,000 mm 0,0 UV-I 0 W/m 0,6 C -1,8 C 16,1 km/h (3 Bft) 100,00 %
29.11.2015 01:35 2,1 C 89 % 1021,6 hPa 0,0 l/m 9,9 km/h (2 Bft) SW 224 0 min 0,000 mm 0,0 UV-I 0 W/m 0,5 C -1,1 C 14,5 km/h (3 Bft) 100,00 %
29.11.2015 01:40 2,1 C 89 % 1021,6 hPa 0,0 l/m 9,1 km/h (2 Bft) SW 229 0 min 0,000 mm 0,0 UV-I 0 W/m 0,5 C -0,4 C 14,5 km/h (3 Bft) 100,00 %
29.11.2015 01:45 2,1 C 89 % 1021,7 hPa 0,0 l/m 11,0 km/h (2 Bft) S 179 0 min 0,000 mm 0,0 UV-I 0 W/m 0,5 C -1,9 C 17,7 km/h (3 Bft) 100,00 %
29.11.2015 01:50 2,1 C 88 % 1021,6 hPa 0,0 l/m 10,1 km/h (2 Bft) SW 232 0 min 0,000 mm 0,0 UV-I 0 W/m 0,3 C -1,2 C 17,7 km/h (3 Bft) 99,08 %
29.11.2015 01:55 2,1 C 88 % 1021,6 hPa 0,0 l/m 11,6 km/h (2 Bft) S-SW 209 0 min 0,000 mm 0,0 UV-I 0 W/m 0,3 C -2,3 C 19,3 km/h (3 Bft) 96,83 %
29.11.2015 02:00 2,0 C 88 % 1021,6 hPa 0,0 l/m 13,6 km/h (3 Bft) SW 232 0 min 0,000 mm 0,0 UV-I 0 W/m 0,2 C -3,7 C 24,1 km/h (4 Bft) 97,32 %
29.11.2015 02:05 2,0 C 88 % 1021,6 hPa 0,0 l/m 12,2 km/h (2 Bft) SW 234 0 min 0,000 mm 0,0 UV-I 0 W/m 0,2 C -2,8 C 20,9 km/h (4 Bft) 95,97 %
29.11.2015 02:10 2,0 C 88 % 1021,6 hPa 0,0 l/m 10,7 km/h (2 Bft) S-SW 198 0 min 0,000 mm 0,0 UV-I 0 W/m 0,2 C -1,8 C 16,1 km/h (3 Bft) 97,17 %
29.11.2015 02:15 1,9 C 88 % 1021,5 hPa 0,0 l/m 10,5 km/h (2 Bft) S 187 0 min 0,000 mm 0,0 UV-I 0 W/m 0,1 C -1,7 C 17,7 km/h (3 Bft) 96,83 %
29.11.2015 02:20 1,9 C 88 % 1021,5 hPa 0,0 l/m 12,2 km/h (2 Bft) S 172 0 min 0,000 mm 0,0 UV-I 0 W/m 0,1 C -2,9 C 19,3 km/h (3 Bft) 97,32 %
29.11.2015 02:25 1,8 C 89 % 1021,6 hPa 0,0 l/m 13,1 km/h (3 Bft) SW 227 0 min 0,000 mm 0,0 UV-I 0 W/m 0,2 C -3,7 C 19,3 km/h (3 Bft) 96,49 %
29.11.2015 02:30 1,8 C 89 % 1021,6 hPa 0,0 l/m 10,8 km/h (2 Bft) W-SW 246 0 min 0,000 mm 0,0 UV-I 0 W/m 0,2 C -2,1 C 19,3 km/h (3 Bft) 98,31 %
29.11.2015 02:35 1,7 C 89 % 1021,5 hPa 0,0 l/m 13,1 km/h (3 Bft) W 260 0 min 0,000 mm 0,0 UV-I 0 W/m 0,1 C -3,8 C 20,9 km/h (4 Bft) 100,00 %
29.11.2015 02:40 1,7 C 89 % 1021,6 hPa 0,0 l/m 12,7 km/h (3 Bft) W-SW 246 0 min 0,000 mm 0,0 UV-I 0 W/m 0,1 C -3,5 C 20,9 km/h (4 Bft) 98,41 %
29.11.2015 02:45 1,7 C 88 % 1021,7 hPa 0,0 l/m 15,3 km/h (3 Bft) W 274 0 min 0,000 mm 0,0 UV-I 0 W/m -0,1 C -5,1 C 27,4 km/h (4 Bft) 96,23 %
29.11.2015 02:50 1,7 C 88 % 1021,7 hPa 0,0 l/m 12,9 km/h (3 Bft) SW 217 0 min 0,000 mm 0,0 UV-I 0 W/m -0,1 C -3,6 C 19,3 km/h (3 Bft) 100,00 %
29.11.2015 02:55 1,7 C 88 % 1021,6 hPa 0,0 l/m 12,8 km/h (3 Bft) SW 230 0 min 0,000 mm 0,0 UV-I 0 W/m -0,1 C -3,6 C 22,5 km/h (4 Bft) 99,17 %
29.11.2015 03:00 1,7 C 87 % 1021,6 hPa 0,0 l/m 12,7 km/h (3 Bft) S 171 0 min 0,000 mm 0,0 UV-I 0 W/m -0,2 C -3,5 C 24,1 km/h (4 Bft) 99,08 %
29.11.2015 03:05 1,7 C 87 % 1021,4 hPa 0,0 l/m 14,5 km/h (3 Bft) SW 227 0 min 0,000 mm 0,0 UV-I 0 W/m -0,2 C -4,6 C 22,5 km/h (4 Bft) 99,21 %
29.11.2015 03:10 1,7 C 87 % 1021,4 hPa 0,0 l/m 16,6 km/h (3 Bft) W-SW 255 0 min 0,000 mm 0,0 UV-I 0 W/m -0,2 C -5,8 C 32,2 km/h (5 Bft) 99,15 %
29.11.2015 03:15 1,6 C 87 % 1021,5 hPa 0,0 l/m 14,7 km/h (3 Bft) SW 234 0 min 0,000 mm 0,0 UV-I 0 W/m -0,3 C -4,9 C 27,4 km/h (4 Bft) 99,08 %
29.11.2015 03:20 1,6 C 86 % 1021,7 hPa 0,0 l/m 17,2 km/h (3 Bft) W 261 0 min 0,000 mm 0,0 UV-I 0 W/m -0,5 C -6,2 C 25,7 km/h (4 Bft) 98,25 %
29.11.2015 03:25 1,7 C 85 % 1021,5 hPa 0,0 l/m 16,4 km/h (3 Bft) SW 234 0 min 0,000 mm 0,0 UV-I 0 W/m -0,5 C -5,7 C 30,6 km/h (5 Bft) 99,19 %
29.11.2015 03:30 1,8 C 85 % 1021,4 hPa 0,0 l/m 14,9 km/h (3 Bft) SW 231 0 min 0,000 mm 0,0 UV-I 0 W/m -0,4 C -4,7 C 24,1 km/h (4 Bft) 100,00 %
29.11.2015 03:35 1,8 C 84 % 1021,4 hPa 0,0 l/m 17,5 km/h (3 Bft) S-SW 211 0 min 0,000 mm 0,0 UV-I 0 W/m -0,6 C -6,1 C 25,7 km/h (4 Bft) 98,26 %
29.11.2015 03:40 1,8 C 84 % 1021,3 hPa 0,0 l/m 14,7 km/h (3 Bft) W-SW 240 0 min 0,000 mm 0,0 UV-I 0 W/m -0,6 C -4,6 C 22,5 km/h (4 Bft) 98,26 %
29.11.2015 03:45 1,7 C 85 % 1021,4 hPa 0,0 l/m 13,2 km/h (3 Bft) SW 222 0 min 0,000 mm 0,0 UV-I 0 W/m -0,5 C -3,8 C 24,1 km/h (4 Bft) 100,00 %
29.11.2015 03:50 1,7 C 84 % 1021,3 hPa 0,0 l/m 12,2 km/h (2 Bft) SW 236 0 min 0,000 mm 0,0 UV-I 0 W/m -0,7 C -3,2 C 19,3 km/h (3 Bft) 100,00 %
29.11.2015 03:55 1,6 C 84 % 1021,3 hPa 0,0 l/m 10,9 km/h (2 Bft) W-SW 244 0 min 0,000 mm 0,0 UV-I 0 W/m -0,8 C -2,4 C 19,3 km/h (3 Bft) 99,15 %
29.11.2015 04:00 1,5 C 85 % 1021,3 hPa 0,0 l/m 10,6 km/h (2 Bft) SW 216 0 min 0,026 mm 0,0 UV-I 0 W/m -0,7 C -2,3 C 17,7 km/h (3 Bft) 98,17 %
29.11.2015 04:05 1,4 C 85 % 1021,2 hPa 0,0 l/m 9,3 km/h (2 Bft) SW 236 0 min 0,000 mm 0,0 UV-I 0 W/m -0,8 C -1,3 C 14,5 km/h (3 Bft) 96,47 %
29.11.2015 04:10 1,5 C 85 % 1021,2 hPa 0,0 l/m 10,3 km/h (2 Bft) S-SW 202 0 min 0,000 mm 0,0 UV-I 0 W/m -0,7 C -2,0 C 17,7 km/h (3 Bft) 95,54 %
29.11.2015 04:15 1,5 C 85 % 1021,1 hPa 0,0 l/m 7,9 km/h (2 Bft) SW 225 0 min 0,000 mm 0,0 UV-I 0 W/m -0,7 C 0,0 C 14,5 km/h (3 Bft) 97,50 %
29.11.2015 04:20 1,4 C 85 % 1021,1 hPa 0,0 l/m 7,6 km/h (2 Bft) SW 215 0 min 0,000 mm 0,0 UV-I 0 W/m -0,8 C 0,2 C 12,9 km/h (3 Bft) 96,52 %
29.11.2015 04:25 1,4 C 85 % 1021,0 hPa 0,0 l/m 7,2 km/h (2 Bft) SW 227 0 min 0,000 mm 0,0 UV-I 0 W/m -0,8 C 0,6 C 12,9 km/h (3 Bft) 96,75 %
29.11.2015 04:30 1,4 C 85 % 1020,9 hPa 0,0 l/m 7,2 km/h (2 Bft) S 184 0 min 0,000 mm 0,0 UV-I 0 W/m -0,8 C 0,6 C 12,9 km/h (3 Bft) 96,69 %
29.11.2015 04:35 1,3 C 85 % 1020,9 hPa 0,0 l/m 7,7 km/h (2 Bft) S-SW 210 0 min 0,000 mm 0,0 UV-I 0 W/m -0,9 C 0,0 C 14,5 km/h (3 Bft) 97,39 %
29.11.2015 04:40 1,3 C 85 % 1020,9 hPa 0,0 l/m 7,6 km/h (2 Bft) SW 224 0 min 0,000 mm 0,0 UV-I 0 W/m -0,9 C 0,1 C 12,9 km/h (3 Bft) 100,00 %
29.11.2015 04:45 1,4 C 85 % 1020,9 hPa 0,0 l/m 8,8 km/h (2 Bft) SW 235 0 min 0,000 mm 0,0 UV-I 0 W/m -0,8 C -0,9 C 17,7 km/h (3 Bft) 98,31 %
29.11.2015 04:50 1,3 C 85 % 1020,9 hPa 0,0 l/m 11,4 km/h (2 Bft) W-SW 238 0 min 0,000 mm 0,0 UV-I 0 W/m -0,9 C -3,1 C 20,9 km/h (4 Bft) 100,00 %
29.11.2015 04:55 1,3 C 85 % 1020,8 hPa 0,0 l/m 12,1 km/h (2 Bft) W-SW 239 0 min 0,000 mm 0,0 UV-I 0 W/m -0,9 C -3,6 C 17,7 km/h (3 Bft) 99,19 %
29.11.2015 05:00 1,3 C 85 % 1020,7 hPa 0,0 l/m 11,9 km/h (2 Bft) W-SW 243 0 min 0,000 mm 0,0 UV-I 0 W/m -0,9 C -3,4 C 20,9 km/h (4 Bft) 99,08 %
29.11.2015 05:05 1,6 C 84 % 1020,6 hPa 0,0 l/m 13,8 km/h (3 Bft) SW 233 0 min 0,000 mm 0,0 UV-I 0 W/m -0,8 C -4,3 C 25,7 km/h (4 Bft) 99,15 %
29.11.2015 05:10 1,7 C 84 % 1020,6 hPa 0,0 l/m 14,6 km/h (3 Bft) W-SW 243 0 min 0,000 mm 0,0 UV-I 0 W/m -0,7 C -4,7 C 24,1 km/h (4 Bft) 99,17 %
29.11.2015 05:15 1,8 C 83 % 1020,8 hPa 0,0 l/m 13,2 km/h (3 Bft) W-SW 256 0 min 0,000 mm 0,0 UV-I 0 W/m -0,8 C -3,7 C 22,5 km/h (4 Bft) 98,17 %
29.11.2015 05:20 1,9 C 83 % 1021,0 hPa 0,0 l/m 11,5 km/h (2 Bft) SW 221 0 min 0,000 mm 0,0 UV-I 0 W/m -0,7 C -2,5 C 22,5 km/h (4 Bft) 99,19 %
29.11.2015 05:25 1,9 C 82 % 1021,0 hPa 0,0 l/m 10,0 km/h (2 Bft) SW 223 0 min 0,000 mm 0,0 UV-I 0 W/m -0,8 C -1,4 C 16,1 km/h (3 Bft) 99,17 %
29.11.2015 05:30 1,9 C 82 % 1021,0 hPa 0,0 l/m 11,3 km/h (2 Bft) S-SW 205 0 min 0,000 mm 0,0 UV-I 0 W/m -0,8 C -2,3 C 19,3 km/h (3 Bft) 100,00 %
29.11.2015 05:35 1,8 C 83 % 1020,9 hPa 0,0 l/m 11,6 km/h (2 Bft) S 184 0 min 0,000 mm 0,0 UV-I 0 W/m -0,8 C -2,7 C 19,3 km/h (3 Bft) 97,50 %
29.11.2015 05:40 1,8 C 82 % 1020,9 hPa 0,0 l/m 13,0 km/h (3 Bft) S-SW 193 0 min 0,000 mm 0,0 UV-I 0 W/m -0,9 C -3,6 C 17,7 km/h (3 Bft) 99,15 %
29.11.2015 05:45 1,7 C 83 % 1020,9 hPa 0,0 l/m 14,8 km/h (3 Bft) W-SW 244 0 min 0,000 mm 0,0 UV-I 0 W/m -0,9 C -4,8 C 24,1 km/h (4 Bft) 100,00 %
29.11.2015 05:50 1,7 C 83 % 1020,8 hPa 0,0 l/m 14,9 km/h (3 Bft) SW 234 0 min 0,000 mm 0,0 UV-I 0 W/m -0,9 C -4,9 C 22,5 km/h (4 Bft) 98,21 %
29.11.2015 05:55 1,7 C 83 % 1020,7 hPa 0,0 l/m 15,2 km/h (3 Bft) W-SW 238 0 min 0,000 mm 0,0 UV-I 0 W/m -0,9 C -5,0 C 24,1 km/h (4 Bft) 100,00 %
29.11.2015 06:00 1,8 C 83 % 1020,6 hPa 0,0 l/m 12,5 km/h (3 Bft) W-SW 243 0 min 0,025 mm 0,0 UV-I 0 W/m -0,8 C -3,3 C 22,5 km/h (4 Bft) 97,44 %
29.11.2015 06:05 1,8 C 82 % 1020,6 hPa 0,0 l/m 10,4 km/h (2 Bft) W-SW 240 0 min 0,000 mm 0,0 UV-I 0 W/m -0,9 C -1,8 C 19,3 km/h (3 Bft) 100,00 %
29.11.2015 06:10 1,8 C 82 % 1020,7 hPa 0,0 l/m 9,4 km/h (2 Bft) W-SW 238 0 min 0,000 mm 0,0 UV-I 0 W/m -0,9 C -1,0 C 16,1 km/h (3 Bft) 96,52 %
29.11.2015 06:15 1,8 C 82 % 1020,7 hPa 0,0 l/m 9,3 km/h (2 Bft) SW 215 0 min 0,000 mm 0,0 UV-I 0 W/m -0,9 C -0,9 C 16,1 km/h (3 Bft) 97,50 %
29.11.2015 06:20 1,7 C 82 % 1020,7 hPa 0,0 l/m 9,3 km/h (2 Bft) S-SW 202 0 min 0,000 mm 0,0 UV-I 0 W/m -1,0 C -1,0 C 14,5 km/h (3 Bft) 97,64 %
29.11.2015 06:25 1,7 C 82 % 1020,8 hPa 0,0 l/m 7,7 km/h (2 Bft) S-SW 194 0 min 0,000 mm 0,0 UV-I 0 W/m -1,0 C 0,4 C 17,7 km/h (3 Bft) 95,73 %
29.11.2015 06:30 1,6 C 83 % 1020,7 hPa 0,0 l/m 6,4 km/h (2 Bft) S-SW 202 0 min 0,000 mm 0,0 UV-I 0 W/m -1,0 C 1,6 C 11,3 km/h (2 Bft) 97,32 %
29.11.2015 06:35 1,5 C 83 % 1020,7 hPa 0,0 l/m 5,7 km/h (1 Bft) SW 222 0 min 0,000 mm 0,0 UV-I 0 W/m -1,1 C 1,5 C 9,7 km/h (2 Bft) 96,69 %
29.11.2015 06:40 1,4 C 83 % 1020,8 hPa 0,0 l/m 6,2 km/h (2 Bft) SW 217 0 min 0,000 mm 0,0 UV-I 0 W/m -1,2 C 1,4 C 11,3 km/h (2 Bft) 94,44 %
29.11.2015 06:45 1,4 C 84 % 1020,8 hPa 0,0 l/m 6,0 km/h (2 Bft) SW 232 0 min 0,000 mm 0,0 UV-I 0 W/m -1,0 C 1,4 C 9,7 km/h (2 Bft) 97,52 %
29.11.2015 06:50 1,2 C 85 % 1020,8 hPa 0,0 l/m 5,7 km/h (1 Bft) SW 218 0 min 0,000 mm 0,0 UV-I 0 W/m -1,0 C 1,2 C 9,7 km/h (2 Bft) 99,19 %
29.11.2015 06:55 1,2 C 85 % 1020,8 hPa 0,0 l/m 3,5 km/h (1 Bft) W-SW 242 0 min 0,000 mm 0,0 UV-I 0 W/m -1,0 C 1,2 C 6,4 km/h (2 Bft) 98,21 %
29.11.2015 07:00 1,0 C 86 % 1020,8 hPa 0,0 l/m 4,5 km/h (1 Bft) S-SW 212 0 min 0,000 mm 0,0 UV-I 0 W/m -1,1 C 1,0 C 8,0 km/h (2 Bft) 98,39 %
29.11.2015 07:05 0,9 C 86 % 1020,8 hPa 0,0 l/m 4,1 km/h (1 Bft) W 267 0 min 0,000 mm 0,0 UV-I 0 W/m -1,2 C 0,9 C 6,4 km/h (2 Bft) 99,07 %
29.11.2015 07:10 0,9 C 87 % 1020,9 hPa 0,0 l/m 2,8 km/h (1 Bft) W-SW 256 0 min 0,000 mm 0,0 UV-I 0 W/m -1,0 C 0,9 C 4,8 km/h (1 Bft) 97,39 %
29.11.2015 07:15 1,1 C 86 % 1020,9 hPa 0,0 l/m 2,9 km/h (1 Bft) W-SW 248 0 min 0,000 mm 0,0 UV-I 0 W/m -1,0 C 1,1 C 4,8 km/h (1 Bft) 97,58 %
29.11.2015 07:20 1,1 C 86 % 1020,8 hPa 0,0 l/m 3,5 km/h (1 Bft) S-SW 201 0 min 0,000 mm 0,0 UV-I 0 W/m -1,0 C 1,1 C 6,4 km/h (2 Bft) 99,12 %
29.11.2015 07:25 1,0 C 87 % 1020,8 hPa 0,0 l/m 4,5 km/h (1 Bft) S-SW 213 0 min 0,000 mm 0,0 UV-I 0 W/m -0,9 C 1,0 C 6,4 km/h (2 Bft) 96,52 %
29.11.2015 07:30 0,9 C 88 % 1020,7 hPa 0,0 l/m 4,5 km/h (1 Bft) S-SW 211 0 min 0,000 mm 0,0 UV-I 2 W/m -0,9 C 0,9 C 8,0 km/h (2 Bft) 100,00 %
29.11.2015 07:35 1,0 C 88 % 1020,5 hPa 0,0 l/m 5,3 km/h (1 Bft) SW 232 0 min 0,000 mm 0,0 UV-I 7 W/m -0,8 C 1,0 C 8,0 km/h (2 Bft) 100,00 %
29.11.2015 07:40 0,9 C 88 % 1020,6 hPa 0,0 l/m 5,9 km/h (2 Bft) SW 232 0 min 0,000 mm 0,0 UV-I 7 W/m -0,9 C 0,9 C 9,7 km/h (2 Bft) 99,15 %
29.11.2015 07:45 1,1 C 89 % 1020,5 hPa 0,0 l/m 6,2 km/h (2 Bft) W-SW 247 0 min 0,000 mm 0,0 UV-I 7 W/m -0,5 C 1,1 C 9,7 km/h (2 Bft) 97,17 %
29.11.2015 07:50 1,2 C 88 % 1020,6 hPa 0,0 l/m 5,7 km/h (1 Bft) SW 217 0 min 0,000 mm 0,0 UV-I 10 W/m -0,6 C 1,2 C 8,0 km/h (2 Bft) 98,48 %
29.11.2015 07:55 1,3 C 88 % 1020,6 hPa 0,0 l/m 5,6 km/h (1 Bft) W 265 0 min 0,000 mm 0,0 UV-I 15 W/m -0,5 C 1,3 C 12,9 km/h (3 Bft) 100,00 %
29.11.2015 08:00 1,6 C 87 % 1020,6 hPa 0,0 l/m 5,5 km/h (1 Bft) W-NW 284 0 min 0,000 mm 0,0 UV-I 19 W/m -0,3 C 1,6 C 14,5 km/h (3 Bft) 98,29 %
29.11.2015 08:05 1,6 C 87 % 1020,5 hPa 0,0 l/m 4,4 km/h (1 Bft) W-NW 287 0 min 0,000 mm 0,0 UV-I 19 W/m -0,3 C 1,6 C 9,7 km/h (2 Bft) 98,35 %
29.11.2015 08:10 1,6 C 87 % 1020,5 hPa 0,0 l/m 3,6 km/h (1 Bft) W 271 0 min 0,000 mm 0,0 UV-I 23 W/m -0,3 C 1,6 C 6,4 km/h (2 Bft) 100,00 %
29.11.2015 08:15 1,6 C 87 % 1020,5 hPa 0,0 l/m 4,1 km/h (1 Bft) W-NW 292 0 min 0,000 mm 0,0 UV-I 30 W/m -0,3 C 1,6 C 9,7 km/h (2 Bft) 97,48 %
29.11.2015 08:20 1,7 C 86 % 1020,5 hPa 0,0 l/m 5,0 km/h (1 Bft) W-SW 253 0 min 0,000 mm 0,0 UV-I 38 W/m -0,4 C 1,7 C 11,3 km/h (2 Bft) 97,46 %
29.11.2015 08:25 1,8 C 85 % 1020,4 hPa 0,0 l/m 3,3 km/h (1 Bft) W-NW 291 0 min 0,000 mm 0,0 UV-I 41 W/m -0,4 C 1,8 C 6,4 km/h (2 Bft) 97,37 %
29.11.2015 08:30 1,9 C 85 % 1020,2 hPa 0,0 l/m 3,3 km/h (1 Bft) W 267 0 min 0,000 mm 0,0 UV-I 27 W/m -0,3 C 1,9 C 6,4 km/h (2 Bft) 97,52 %
29.11.2015 08:35 1,9 C 85 % 1020,3 hPa 0,0 l/m 3,1 km/h (1 Bft) W 281 0 min 0,000 mm 0,0 UV-I 19 W/m -0,3 C 1,9 C 6,4 km/h (2 Bft) 94,64 %
29.11.2015 08:40 1,8 C 85 % 1020,2 hPa 0,0 l/m 3,8 km/h (1 Bft) W-SW 257 0 min 0,000 mm 0,0 UV-I 19 W/m -0,4 C 1,8 C 6,4 km/h (2 Bft) 97,44 %
29.11.2015 08:45 1,9 C 85 % 1020,2 hPa 0,0 l/m 4,1 km/h (1 Bft) W 263 0 min 0,000 mm 0,0 UV-I 18 W/m -0,3 C 1,9 C 6,4 km/h (2 Bft) 97,58 %
29.11.2015 08:50 2,1 C 85 % 1020,3 hPa 0,0 l/m 5,1 km/h (1 Bft) W-NW 290 0 min 0,000 mm 0,0 UV-I 21 W/m -0,2 C 2,1 C 12,9 km/h (3 Bft) 94,74 %
29.11.2015 08:55 2,1 C 86 % 1020,3 hPa 0,0 l/m 3,6 km/h (1 Bft) W 259 0 min 0,000 mm 0,0 UV-I 34 W/m 0,0 C 2,1 C 6,4 km/h (2 Bft) 99,17 %
29.11.2015 09:00 2,2 C 84 % 1020,1 hPa 0,0 l/m 5,4 km/h (1 Bft) W 265 0 min 0,026 mm 0,0 UV-I 53 W/m -0,2 C 2,2 C 11,3 km/h (2 Bft) 99,15 %
29.11.2015 09:05 2,5 C 82 % 1020,1 hPa 0,0 l/m 7,7 km/h (2 Bft) W 260 0 min 0,000 mm 0,0 UV-I 45 W/m -0,3 C 1,3 C 14,5 km/h (3 Bft) 97,22 %
29.11.2015 09:10 2,7 C 81 % 1020,1 hPa 0,0 l/m 9,9 km/h (2 Bft) SW 234 0 min 0,000 mm 0,0 UV-I 49 W/m -0,2 C -0,4 C 16,1 km/h (3 Bft) 99,19 %
29.11.2015 09:15 2,8 C 81 % 1020,1 hPa 0,0 l/m 8,6 km/h (2 Bft) S-SW 208 0 min 0,000 mm 0,0 UV-I 58 W/m -0,1 C 0,8 C 14,5 km/h (3 Bft) 99,13 %
29.11.2015 09:20 2,8 C 81 % 1020,0 hPa 0,0 l/m 7,8 km/h (2 Bft) SW 228 0 min 0,000 mm 0,0 UV-I 65 W/m -0,1 C 1,5 C 11,3 km/h (2 Bft) 99,13 %
29.11.2015 09:25 2,8 C 81 % 1020,0 hPa 0,0 l/m 6,1 km/h (2 Bft) SW 221 0 min 0,000 mm 0,0 UV-I 80 W/m -0,1 C 2,8 C 12,9 km/h (3 Bft) 100,00 %
29.11.2015 09:30 2,8 C 81 % 1020,0 hPa 0,0 l/m 6,4 km/h (2 Bft) SW 233 0 min 0,000 mm 0,0 UV-I 125 W/m -0,1 C 2,8 C 9,7 km/h (2 Bft) 97,14 %
29.11.2015 09:40 2,9 C 81 % 1019,9 hPa 0,0 l/m 7,8 km/h (2 Bft) SW 236 0 min 0,000 mm 0,0 UV-I 122 W/m -0,0 C 1,6 C 14,5 km/h (3 Bft) 98,42 %
29.11.2015 09:45 2,8 C 80 % 1019,8 hPa 0,0 l/m 8,2 km/h (2 Bft) S-SW 211 0 min 0,000 mm 0,0 UV-I 105 W/m -0,3 C 1,1 C 16,1 km/h (3 Bft) 100,00 %
29.11.2015 09:50 2,9 C 80 % 1019,9 hPa 0,0 l/m 8,2 km/h (2 Bft) SW 232 0 min 0,000 mm 0,0 UV-I 107 W/m -0,2 C 1,2 C 14,5 km/h (3 Bft) 97,46 %
29.11.2015 09:55 2,9 C 80 % 1020,0 hPa 0,0 l/m 7,6 km/h (2 Bft) S-SW 195 0 min 0,000 mm 0,0 UV-I 100 W/m -0,2 C 1,8 C 14,5 km/h (3 Bft) 100,00 %
29.11.2015 10:00 3,1 C 79 % 1019,9 hPa 0,0 l/m 6,9 km/h (2 Bft) S-SW 201 0 min 0,050 mm 0,0 UV-I 103 W/m -0,2 C 2,6 C 11,3 km/h (2 Bft) 100,00 %
29.11.2015 10:05 3,1 C 79 % 1020,1 hPa 0,0 l/m 5,6 km/h (1 Bft) S-SW 206 0 min 0,000 mm 0,0 UV-I 127 W/m -0,2 C 3,1 C 11,3 km/h (2 Bft) 99,15 %
29.11.2015 10:10 3,3 C 79 % 1020,1 hPa 0,0 l/m 7,8 km/h (2 Bft) SW 217 5 min 0,000 mm 0,0 UV-I 172 W/m 0,0 C 2,0 C 14,5 km/h (3 Bft) 99,08 %
29.11.2015 10:15 3,6 C 78 % 1020,1 hPa 0,0 l/m 5,7 km/h (1 Bft) S-SW 204 0 min 0,000 mm 0,0 UV-I 156 W/m 0,1 C 3,6 C 9,7 km/h (2 Bft) 100,00 %
29.11.2015 10:20 3,8 C 78 % 1020,1 hPa 0,0 l/m 5,7 km/h (1 Bft) SW 220 0 min 0,000 mm 0,5 UV-I 168 W/m 0,3 C 3,8 C 12,9 km/h (3 Bft) 98,35 %
29.11.2015 10:25 4,2 C 76 % 1019,9 hPa 0,0 l/m 5,5 km/h (1 Bft) S-SW 209 0 min 0,000 mm 0,3 UV-I 169 W/m 0,4 C 4,2 C 14,5 km/h (3 Bft) 97,44 %
29.11.2015 10:30 4,4 C 76 % 1019,9 hPa 0,0 l/m 4,5 km/h (1 Bft) S-SW 200 0 min 0,000 mm 0,0 UV-I 142 W/m 0,5 C 4,4 C 6,4 km/h (2 Bft) 96,33 %
29.11.2015 10:35 4,8 C 75 % 1019,9 hPa 0,0 l/m 5,0 km/h (1 Bft) SW 228 0 min 0,000 mm 0,0 UV-I 140 W/m 0,8 C 4,8 C 8,0 km/h (2 Bft) 95,97 %
29.11.2015 10:40 5,2 C 73 % 1020,0 hPa 0,0 l/m 5,1 km/h (1 Bft) W-SW 242 0 min 0,000 mm 0,0 UV-I 134 W/m 0,8 C 5,2 C 9,7 km/h (2 Bft) 97,30 %
29.11.2015 10:45 5,3 C 72 % 1019,9 hPa 0,0 l/m 5,1 km/h (1 Bft) S-SW 203 0 min 0,000 mm 0,0 UV-I 127 W/m 0,7 C 5,3 C 11,3 km/h (2 Bft) 97,69 %
29.11.2015 10:50 5,4 C 71 % 1019,8 hPa 0,0 l/m 5,3 km/h (1 Bft) SW 226 0 min 0,000 mm 0,0 UV-I 121 W/m 0,6 C 5,4 C 9,7 km/h (2 Bft) 97,25 %
29.11.2015 10:55 5,5 C 71 % 1019,7 hPa 0,0 l/m 4,6 km/h (1 Bft) SW 236 0 min 0,000 mm 0,0 UV-I 111 W/m 0,7 C 5,5 C 9,7 km/h (2 Bft) 96,83 %
29.11.2015 11:00 5,7 C 70 % 1019,7 hPa 0,0 l/m 7,4 km/h (2 Bft) W-SW 254 0 min 0,077 mm 0,0 UV-I 107 W/m 0,7 C 4,8 C 14,5 km/h (3 Bft) 98,21 %
29.11.2015 11:05 6,3 C 66 % 1019,5 hPa 0,0 l/m 14,0 km/h (3 Bft) W-SW 246 0 min 0,000 mm 0,0 UV-I 119 W/m 0,4 C 1,2 C 19,3 km/h (3 Bft) 99,17 %
29.11.2015 11:10 6,7 C 64 % 1019,4 hPa 0,0 l/m 16,2 km/h (3 Bft) S-SW 210 0 min 0,000 mm 0,0 UV-I 118 W/m 0,4 C 0,6 C 24,1 km/h (4 Bft) 99,11 %
29.11.2015 11:15 6,7 C 63 % 1019,4 hPa 0,0 l/m 16,9 km/h (3 Bft) W 271 0 min 0,000 mm 0,0 UV-I 104 W/m 0,2 C 0,3 C 27,4 km/h (4 Bft) 99,17 %
29.11.2015 11:20 6,7 C 64 % 1019,4 hPa 0,0 l/m 18,2 km/h (3 Bft) W-SW 242 0 min 0,000 mm 0,0 UV-I 95 W/m 0,4 C -0,3 C 27,4 km/h (4 Bft) 97,37 %
29.11.2015 11:25 6,7 C 63 % 1019,4 hPa 0,0 l/m 17,2 km/h (3 Bft) W-SW 243 0 min 0,000 mm 0,0 UV-I 86 W/m 0,2 C 0,1 C 27,4 km/h (4 Bft) 99,15 %
29.11.2015 11:30 6,8 C 64 % 1019,4 hPa 0,0 l/m 13,7 km/h (3 Bft) N 351 0 min 0,000 mm 0,0 UV-I 81 W/m 0,5 C 1,9 C 25,7 km/h (4 Bft) 96,33 %
29.11.2015 11:35 7,0 C 64 % 1019,2 hPa 0,0 l/m 18,1 km/h (3 Bft) SW 219 0 min 0,000 mm 0,0 UV-I 90 W/m 0,7 C 0,1 C 30,6 km/h (5 Bft) 98,33 %
29.11.2015 11:40 7,1 C 65 % 1019,2 hPa 0,0 l/m 18,4 km/h (3 Bft) W 265 0 min 0,000 mm 0,0 UV-I 87 W/m 1,0 C 0,1 C 32,2 km/h (5 Bft) 100,00 %
29.11.2015 11:45 7,2 C 65 % 1019,2 hPa 0,0 l/m 17,6 km/h (3 Bft) W 267 0 min 0,000 mm 0,0 UV-I 82 W/m 1,1 C 0,6 C 29,0 km/h (5 Bft) 98,29 %
29.11.2015 11:50 7,2 C 66 % 1019,1 hPa 0,0 l/m 22,5 km/h (4 Bft) W-SW 255 0 min 0,000 mm 0,0 UV-I 73 W/m 1,3 C -1,2 C 46,7 km/h (6 Bft) 98,31 %
29.11.2015 11:55 7,2 C 67 % 1019,1 hPa 0,0 l/m 17,3 km/h (3 Bft) SW 227 0 min 0,000 mm 0,0 UV-I 70 W/m 1,5 C 0,7 C 29,0 km/h (5 Bft) 100,00 %
29.11.2015 12:00 7,2 C 68 % 1019,2 hPa 0,0 l/m 19,1 km/h (3 Bft) W 269 0 min 0,101 mm 0,0 UV-I 71 W/m 1,7 C 0,0 C 29,0 km/h (5 Bft) 99,21 %
29.11.2015 12:05 7,2 C 68 % 1019,1 hPa 0,0 l/m 18,8 km/h (3 Bft) W-SW 240 0 min 0,000 mm 0,0 UV-I 71 W/m 1,7 C 0,1 C 29,0 km/h (5 Bft) 98,26 %
29.11.2015 12:10 7,2 C 69 % 1018,9 hPa 0,0 l/m 19,0 km/h (3 Bft) W-SW 247 0 min 0,000 mm 0,0 UV-I 83 W/m 1,9 C 0,0 C 37,0 km/h (5 Bft) 99,17 %
29.11.2015 12:15 7,2 C 70 % 1018,8 hPa 0,0 l/m 20,8 km/h (4 Bft) W 273 0 min 0,000 mm 0,0 UV-I 93 W/m 2,1 C -0,6 C 49,9 km/h (6 Bft) 100,00 %
29.11.2015 12:20 7,1 C 70 % 1018,9 hPa 0,0 l/m 23,8 km/h (4 Bft) W 279 0 min 0,000 mm 0,0 UV-I 102 W/m 2,0 C -1,7 C 41,8 km/h (6 Bft) 96,52 %
29.11.2015 12:25 7,0 C 71 % 1018,9 hPa 0,0 l/m 23,0 km/h (4 Bft) W-SW 246 0 min 0,000 mm 0,0 UV-I 100 W/m 2,1 C -1,6 C 41,8 km/h (6 Bft) 98,25 %
29.11.2015 12:30 6,9 C 72 % 1018,8 hPa 0,0 l/m 24,4 km/h (4 Bft) SW 232 0 min 0,000 mm 0,0 UV-I 100 W/m 2,2 C -2,2 C 38,6 km/h (5 Bft) 97,39 %
29.11.2015 12:35 6,8 C 73 % 1018,9 hPa 0,0 l/m 27,0 km/h (4 Bft) W 266 0 min 0,000 mm 0,0 UV-I 97 W/m 2,3 C -3,1 C 43,5 km/h (6 Bft) 96,77 %
29.11.2015 12:40 6,7 C 74 % 1018,8 hPa 0,0 l/m 24,1 km/h (4 Bft) W 271 0 min 0,000 mm 0,0 UV-I 95 W/m 2,4 C -2,4 C 38,6 km/h (5 Bft) 97,94 %
29.11.2015 12:45 6,6 C 76 % 1018,8 hPa 0,0 l/m 19,0 km/h (3 Bft) W 259 0 min 0,000 mm 0,0 UV-I 101 W/m 2,7 C -0,7 C 32,2 km/h (5 Bft) 96,97 %
29.11.2015 12:50 6,4 C 77 % 1018,8 hPa 0,0 l/m 23,0 km/h (4 Bft) W 264 0 min 0,000 mm 0,0 UV-I 104 W/m 2,7 C -2,4 C 43,5 km/h (6 Bft) 96,52 %
29.11.2015 12:55 6,3 C 78 % 1018,9 hPa 0,0 l/m 16,5 km/h (3 Bft) W 261 0 min 0,000 mm 0,0 UV-I 101 W/m 2,8 C -0,1 C 29,0 km/h (5 Bft) 99,07 %
29.11.2015 13:10 6,1 C 81 % 1018,9 hPa 0,0 l/m 19,8 km/h (3 Bft) W-SW 251 0 min 0,102 mm 0,0 UV-I 107 W/m 3,1 C -1,7 C 33,8 km/h (5 Bft) 98,90 %
29.11.2015 13:15 6,1 C 81 % 1018,8 hPa 0,0 l/m 19,5 km/h (3 Bft) W-SW 251 0 min 0,000 mm 0,0 UV-I 77 W/m 3,1 C -1,6 C 33,8 km/h (5 Bft) 99,15 %
29.11.2015 13:20 6,0 C 82 % 1018,8 hPa 0,0 l/m 22,9 km/h (4 Bft) W 262 0 min 0,000 mm 0,0 UV-I 69 W/m 3,2 C -2,9 C 33,8 km/h (5 Bft) 100,00 %
29.11.2015 13:25 5,9 C 82 % 1018,7 hPa 0,0 l/m 19,3 km/h (3 Bft) W-SW 250 0 min 0,000 mm 0,0 UV-I 64 W/m 3,1 C -1,7 C 32,2 km/h (5 Bft) 99,17 %
29.11.2015 13:30 5,9 C 84 % 1018,8 hPa 0,0 l/m 18,2 km/h (3 Bft) W-SW 255 0 min 0,000 mm 0,0 UV-I 83 W/m 3,4 C -1,3 C 29,0 km/h (5 Bft) 98,33 %
29.11.2015 13:35 5,8 C 84 % 1018,8 hPa 0,2 l/m 19,8 km/h (3 Bft) W-SW 254 0 min 0,000 mm 0,0 UV-I 83 W/m 3,3 C -2,1 C 30,6 km/h (5 Bft) 99,13 %
29.11.2015 13:40 5,8 C 85 % 1018,7 hPa 0,0 l/m 21,6 km/h (4 Bft) W-SW 254 0 min 0,000 mm 0,0 UV-I 74 W/m 3,5 C -2,7 C 30,6 km/h (5 Bft) 98,97 %
29.11.2015 13:45 5,7 C 86 % 1018,8 hPa 0,2 l/m 19,6 km/h (3 Bft) W-SW 244 0 min 0,000 mm 0,0 UV-I 64 W/m 3,5 C -2,1 C 30,6 km/h (5 Bft) 98,52 %
29.11.2015 13:50 5,7 C 86 % 1018,8 hPa 0,0 l/m 18,5 km/h (3 Bft) W 281 0 min 0,000 mm 0,0 UV-I 56 W/m 3,5 C -1,7 C 25,7 km/h (4 Bft) 100,00 %
29.11.2015 13:55 5,6 C 87 % 1018,9 hPa 0,0 l/m 18,0 km/h (3 Bft) W-SW 258 0 min 0,000 mm 0,0 UV-I 46 W/m 3,6 C -1,6 C 29,0 km/h (5 Bft) 100,00 %
29.11.2015 14:00 5,5 C 87 % 1018,9 hPa 0,2 l/m 18,1 km/h (3 Bft) W-SW 238 0 min 0,051 mm 0,0 UV-I 34 W/m 3,5 C -1,8 C 32,2 km/h (5 Bft) 100,00 %
29.11.2015 14:05 5,5 C 88 % 1019,0 hPa 0,2 l/m 16,3 km/h (3 Bft) W-SW 241 0 min 0,000 mm 0,0 UV-I 31 W/m 3,7 C -0,9 C 25,7 km/h (4 Bft) 98,31 %
29.11.2015 14:10 5,4 C 88 % 1018,9 hPa 0,0 l/m 17,9 km/h (3 Bft) SW 223 0 min 0,000 mm 0,0 UV-I 33 W/m 3,6 C -1,8 C 33,8 km/h (5 Bft) 98,17 %
29.11.2015 14:15 5,4 C 88 % 1018,9 hPa 0,2 l/m 18,3 km/h (3 Bft) W 262 0 min 0,000 mm 0,0 UV-I 38 W/m 3,6 C -2,0 C 29,0 km/h (5 Bft) 100,00 %
29.11.2015 14:20 5,4 C 88 % 1019,0 hPa 0,0 l/m 15,5 km/h (3 Bft) SW 233 0 min 0,000 mm 0,0 UV-I 37 W/m 3,6 C -0,7 C 24,1 km/h (4 Bft) 99,15 %
29.11.2015 14:25 5,4 C 88 % 1018,9 hPa 0,0 l/m 13,7 km/h (3 Bft) W-SW 257 0 min 0,000 mm 0,0 UV-I 34 W/m 3,6 C 0,2 C 22,5 km/h (4 Bft) 98,33 %
29.11.2015 14:30 5,3 C 89 % 1018,9 hPa 0,0 l/m 13,7 km/h (3 Bft) W-SW 238 0 min 0,000 mm 0,0 UV-I 32 W/m 3,6 C 0,1 C 22,5 km/h (4 Bft) 96,12 %
29.11.2015 14:35 5,3 C 90 % 1018,9 hPa 0,0 l/m 13,9 km/h (3 Bft) W 266 0 min 0,000 mm 0,0 UV-I 31 W/m 3,8 C 0,0 C 22,5 km/h (4 Bft) 96,92 %
29.11.2015 14:40 5,3 C 90 % 1018,8 hPa 0,2 l/m 14,6 km/h (3 Bft) SW 224 0 min 0,000 mm 0,0 UV-I 30 W/m 3,8 C -0,4 C 24,1 km/h (4 Bft) 94,87 %
29.11.2015 14:45 5,3 C 90 % 1018,9 hPa 0,0 l/m 14,4 km/h (3 Bft) SW 235 0 min 0,000 mm 0,0 UV-I 27 W/m 3,8 C -0,3 C 22,5 km/h (4 Bft) 98,31 %
29.11.2015 14:50 5,3 C 90 % 1018,8 hPa 0,0 l/m 14,4 km/h (3 Bft) W-SW 247 0 min 0,000 mm 0,0 UV-I 21 W/m 3,8 C -0,3 C 24,1 km/h (4 Bft) 97,17 %
29.11.2015 14:55 5,3 C 90 % 1018,7 hPa 0,0 l/m 17,3 km/h (3 Bft) SW 234 0 min 0,000 mm 0,0 UV-I 20 W/m 3,8 C -1,7 C 32,2 km/h (5 Bft) 96,75 %
29.11.2015 15:00 5,4 C 89 % 1018,7 hPa 0,0 l/m 17,3 km/h (3 Bft) S-SW 202 0 min 0,025 mm 0,0 UV-I 17 W/m 3,7 C -1,5 C 25,7 km/h (4 Bft) 98,17 %
29.11.2015 15:05 5,4 C 89 % 1018,8 hPa 0,0 l/m 16,5 km/h (3 Bft) S-SW 209 0 min 0,000 mm 0,0 UV-I 14 W/m 3,7 C -1,2 C 29,0 km/h (5 Bft) 97,62 %
29.11.2015 15:10 5,5 C 89 % 1018,8 hPa 0,2 l/m 18,3 km/h (3 Bft) W-SW 241 0 min 0,000 mm 0,0 UV-I 12 W/m 3,8 C -1,8 C 30,6 km/h (5 Bft) 100,00 %
29.11.2015 15:15 5,6 C 88 % 1018,8 hPa 0,0 l/m 17,4 km/h (3 Bft) SW 228 0 min 0,000 mm 0,0 UV-I 12 W/m 3,8 C -1,3 C 32,2 km/h (5 Bft) 98,43 %
29.11.2015 15:20 5,6 C 88 % 1019,0 hPa 0,0 l/m 19,6 km/h (3 Bft) W-SW 249 0 min 0,000 mm 0,0 UV-I 12 W/m 3,8 C -2,2 C 33,8 km/h (5 Bft) 100,00 %
29.11.2015 15:25 5,7 C 88 % 1018,9 hPa 0,0 l/m 18,2 km/h (3 Bft) W-SW 255 0 min 0,000 mm 0,0 UV-I 11 W/m 3,9 C -1,5 C 29,0 km/h (5 Bft) 99,21 %
29.11.2015 15:30 5,7 C 89 % 1018,8 hPa 0,0 l/m 18,5 km/h (3 Bft) W-NW 284 0 min 0,000 mm 0,0 UV-I 11 W/m 4,0 C -1,7 C 32,2 km/h (5 Bft) 98,26 %
29.11.2015 15:35 5,7 C 88 % 1018,8 hPa 0,2 l/m 19,1 km/h (3 Bft) W-SW 248 0 min 0,000 mm 0,0 UV-I 11 W/m 3,9 C -1,9 C 27,4 km/h (4 Bft) 98,33 %
29.11.2015 15:40 5,7 C 89 % 1018,9 hPa 0,0 l/m 17,7 km/h (3 Bft) W 272 0 min 0,000 mm 0,0 UV-I 9 W/m 4,0 C -1,3 C 29,0 km/h (5 Bft) 99,15 %
29.11.2015 15:45 5,7 C 89 % 1018,9 hPa 0,0 l/m 17,5 km/h (3 Bft) SW 221 0 min 0,000 mm 0,0 UV-I 7 W/m 4,0 C -1,2 C 32,2 km/h (5 Bft) 100,00 %
29.11.2015 15:50 5,7 C 89 % 1018,8 hPa 0,0 l/m 20,2 km/h (4 Bft) SW 227 0 min 0,000 mm 0,0 UV-I 6 W/m 4,0 C -2,3 C 33,8 km/h (5 Bft) 100,00 %
29.11.2015 15:55 5,7 C 89 % 1018,7 hPa 0,2 l/m 17,4 km/h (3 Bft) W-SW 249 0 min 0,000 mm 0,0 UV-I 3 W/m 4,0 C -1,2 C 30,6 km/h (5 Bft) 99,13 %
29.11.2015 16:00 5,7 C 89 % 1018,7 hPa 0,0 l/m 20,7 km/h (4 Bft) S-SW 192 0 min 0,000 mm 0,0 UV-I 0 W/m 4,0 C -2,5 C 33,8 km/h (5 Bft) 96,58 %
29.11.2015 16:05 5,7 C 89 % 1018,6 hPa 0,2 l/m 20,0 km/h (4 Bft) W-SW 250 0 min 0,025 mm 0,0 UV-I 0 W/m 4,0 C -2,3 C 33,8 km/h (5 Bft) 100,00 %
29.11.2015 16:10 5,7 C 89 % 1018,6 hPa 0,2 l/m 22,9 km/h (4 Bft) SW 215 0 min 0,000 mm 0,0 UV-I 0 W/m 4,0 C -3,3 C 38,6 km/h (5 Bft) 99,15 %
29.11.2015 16:15 5,7 C 90 % 1018,6 hPa 0,0 l/m 22,8 km/h (4 Bft) S-SW 193 0 min 0,000 mm 0,0 UV-I 0 W/m 4,2 C -3,3 C 38,6 km/h (5 Bft) 99,15 %
29.11.2015 16:20 5,6 C 90 % 1018,7 hPa 0,2 l/m 20,8 km/h (4 Bft) W-SW 238 0 min 0,000 mm 0,0 UV-I 0 W/m 4,1 C -2,7 C 33,8 km/h (5 Bft) 100,00 %
29.11.2015 16:25 5,6 C 90 % 1018,6 hPa 0,2 l/m 21,1 km/h (4 Bft) S-SW 194 0 min 0,000 mm 0,0 UV-I 0 W/m 4,1 C -2,8 C 33,8 km/h (5 Bft) 99,15 %
29.11.2015 16:30 5,6 C 90 % 1018,6 hPa 0,0 l/m 21,6 km/h (4 Bft) SW 223 0 min 0,000 mm 0,0 UV-I 0 W/m 4,1 C -3,0 C 38,6 km/h (5 Bft) 98,33 %
29.11.2015 16:35 5,7 C 90 % 1018,7 hPa 0,2 l/m 20,6 km/h (4 Bft) W-SW 247 0 min 0,000 mm 0,0 UV-I 0 W/m 4,2 C -2,5 C 32,2 km/h (5 Bft) 96,69 %
29.11.2015 16:40 5,7 C 90 % 1018,7 hPa 0,2 l/m 24,0 km/h (4 Bft) W 265 0 min 0,000 mm 0,0 UV-I 0 W/m 4,2 C -3,7 C 40,2 km/h (6 Bft) 97,44 %
29.11.2015 16:45 5,7 C 90 % 1018,7 hPa 0,2 l/m 21,8 km/h (4 Bft) S-SW 209 0 min 0,000 mm 0,0 UV-I 0 W/m 4,2 C -2,9 C 40,2 km/h (6 Bft) 97,17 %
29.11.2015 16:50 5,7 C 90 % 1018,8 hPa 0,0 l/m 20,7 km/h (4 Bft) W-SW 239 0 min 0,000 mm 0,0 UV-I 0 W/m 4,2 C -2,5 C 33,8 km/h (5 Bft) 96,64 %
29.11.2015 16:55 5,7 C 90 % 1018,9 hPa 0,2 l/m 20,8 km/h (4 Bft) SW 234 0 min 0,000 mm 0,0 UV-I 0 W/m 4,2 C -2,6 C 33,8 km/h (5 Bft) 94,87 %
29.11.2015 17:00 5,7 C 91 % 1018,9 hPa 0,2 l/m 21,0 km/h (4 Bft) SW 217 0 min 0,026 mm 0,0 UV-I 0 W/m 4,3 C -2,6 C 37,0 km/h (5 Bft) 96,61 %
29.11.2015 17:05 5,8 C 91 % 1018,9 hPa 0,2 l/m 26,1 km/h (4 Bft) S-SW 208 0 min 0,000 mm 0,0 UV-I 0 W/m 4,4 C -4,2 C 45,1 km/h (6 Bft) 97,50 %
29.11.2015 17:10 5,8 C 91 % 1019,0 hPa 0,0 l/m 25,4 km/h (4 Bft) S-SW 211 0 min 0,000 mm 0,0 UV-I 0 W/m 4,4 C -4,0 C 48,3 km/h (6 Bft) 97,46 %
29.11.2015 17:15 5,9 C 91 % 1019,0 hPa 0,2 l/m 25,9 km/h (4 Bft) S-SW 195 0 min 0,000 mm 0,0 UV-I 0 W/m 4,5 C -4,0 C 41,8 km/h (6 Bft) 98,31 %
29.11.2015 17:20 5,9 C 91 % 1019,0 hPa 0,0 l/m 23,7 km/h (4 Bft) SW 236 0 min 0,000 mm 0,0 UV-I 0 W/m 4,5 C -3,3 C 37,0 km/h (5 Bft) 98,33 %
29.11.2015 17:25 6,0 C 90 % 1019,2 hPa 0,0 l/m 21,8 km/h (4 Bft) W-SW 244 0 min 0,000 mm 0,0 UV-I 0 W/m 4,5 C -2,5 C 40,2 km/h (6 Bft) 100,00 %
29.11.2015 17:30 6,1 C 90 % 1019,0 hPa 0,2 l/m 24,0 km/h (4 Bft) W-SW 243 0 min 0,000 mm 0,0 UV-I 0 W/m 4,6 C -3,1 C 43,5 km/h (6 Bft) 95,76 %
29.11.2015 17:35 6,1 C 90 % 1019,2 hPa 0,0 l/m 22,9 km/h (4 Bft) W-SW 244 0 min 0,000 mm 0,0 UV-I 0 W/m 4,6 C -2,8 C 33,8 km/h (5 Bft) 100,00 %
29.11.2015 17:40 6,2 C 90 % 1019,3 hPa 0,0 l/m 25,8 km/h (4 Bft) SW 223 0 min 0,000 mm 0,0 UV-I 0 W/m 4,7 C -3,6 C 41,8 km/h (6 Bft) 99,15 %
29.11.2015 17:45 6,3 C 90 % 1019,4 hPa 0,0 l/m 25,6 km/h (4 Bft) SW 227 0 min 0,000 mm 0,0 UV-I 0 W/m 4,8 C -3,4 C 41,8 km/h (6 Bft) 97,44 %
29.11.2015 17:50 6,3 C 90 % 1019,4 hPa 0,2 l/m 25,2 km/h (4 Bft) W-SW 249 0 min 0,000 mm 0,0 UV-I 0 W/m 4,8 C -3,2 C 45,1 km/h (6 Bft) 97,52 %
29.11.2015 17:55 6,3 C 90 % 1019,3 hPa 0,0 l/m 21,7 km/h (4 Bft) W-SW 242 0 min 0,000 mm 0,0 UV-I 0 W/m 4,8 C -2,1 C 37,0 km/h (5 Bft) 98,31 %
29.11.2015 18:00 6,4 C 90 % 1019,2 hPa 0,0 l/m 20,4 km/h (4 Bft) S-SW 207 0 min 0,025 mm 0,0 UV-I 0 W/m 4,9 C -1,5 C 32,2 km/h (5 Bft) 98,15 %
29.11.2015 18:05 6,4 C 89 % 1019,2 hPa 0,0 l/m 23,0 km/h (4 Bft) SW 221 0 min 0,000 mm 0,0 UV-I 0 W/m 4,7 C -2,4 C 37,0 km/h (5 Bft) 99,17 %
29.11.2015 18:10 6,4 C 89 % 1019,0 hPa 0,0 l/m 23,3 km/h (4 Bft) W-SW 250 0 min 0,000 mm 0,0 UV-I 0 W/m 4,7 C -2,5 C 37,0 km/h (5 Bft) 100,00 %
29.11.2015 18:15 6,5 C 89 % 1019,0 hPa 0,0 l/m 26,1 km/h (4 Bft) W-SW 254 0 min 0,000 mm 0,0 UV-I 0 W/m 4,8 C -3,2 C 46,7 km/h (6 Bft) 99,17 %
29.11.2015 18:20 6,6 C 88 % 1019,1 hPa 0,0 l/m 24,3 km/h (4 Bft) S-SW 194 0 min 0,000 mm 0,0 UV-I 0 W/m 4,8 C -2,6 C 38,6 km/h (5 Bft) 98,17 %
29.11.2015 18:25 6,7 C 88 % 1019,1 hPa 0,0 l/m 23,6 km/h (4 Bft) SW 236 0 min 0,000 mm 0,0 UV-I 0 W/m 4,9 C -2,2 C 37,0 km/h (5 Bft) 100,00 %
29.11.2015 18:30 6,7 C 88 % 1019,2 hPa 0,0 l/m 26,4 km/h (4 Bft) S-SW 205 0 min 0,000 mm 0,0 UV-I 0 W/m 4,9 C -3,0 C 48,3 km/h (6 Bft) 100,00 %
29.11.2015 18:35 6,7 C 88 % 1019,1 hPa 0,0 l/m 24,2 km/h (4 Bft) SW 219 0 min 0,000 mm 0,0 UV-I 0 W/m 4,9 C -2,4 C 41,8 km/h (6 Bft) 100,00 %
29.11.2015 18:40 6,7 C 88 % 1019,0 hPa 0,0 l/m 24,2 km/h (4 Bft) W 262 0 min 0,000 mm 0,0 UV-I 0 W/m 4,9 C -2,4 C 38,6 km/h (5 Bft) 99,15 %
29.11.2015 18:45 6,7 C 88 % 1019,0 hPa 0,0 l/m 25,8 km/h (4 Bft) W 260 0 min 0,000 mm 0,0 UV-I 0 W/m 4,9 C -2,9 C 41,8 km/h (6 Bft) 96,61 %
29.11.2015 18:50 6,7 C 89 % 1019,0 hPa 0,2 l/m 24,3 km/h (4 Bft) W-SW 248 0 min 0,000 mm 0,0 UV-I 0 W/m 5,0 C -2,4 C 40,2 km/h (6 Bft) 96,61 %
29.11.2015 18:55 6,7 C 89 % 1019,1 hPa 0,0 l/m 25,5 km/h (4 Bft) SW 225 0 min 0,000 mm 0,0 UV-I 0 W/m 5,0 C -2,8 C 43,5 km/h (6 Bft) 93,16 %
29.11.2015 19:00 6,7 C 89 % 1019,0 hPa 0,2 l/m 25,2 km/h (4 Bft) SW 234 0 min 0,026 mm 0,0 UV-I 0 W/m 5,0 C -2,7 C 38,6 km/h (5 Bft) 96,61 %
29.11.2015 19:05 6,7 C 89 % 1019,1 hPa 0,0 l/m 23,4 km/h (4 Bft) SW 221 0 min 0,000 mm 0,0 UV-I 0 W/m 5,0 C -2,1 C 37,0 km/h (5 Bft) 97,32 %
29.11.2015 19:10 6,8 C 88 % 1019,1 hPa 0,0 l/m 24,0 km/h (4 Bft) SW 234 0 min 0,000 mm 0,0 UV-I 0 W/m 5,0 C -2,2 C 37,0 km/h (5 Bft) 97,50 %
29.11.2015 19:15 6,8 C 88 % 1019,1 hPa 0,0 l/m 21,3 km/h (4 Bft) W 259 0 min 0,000 mm 0,0 UV-I 0 W/m 5,0 C -1,3 C 30,6 km/h (5 Bft) 96,69 %
29.11.2015 19:20 6,8 C 88 % 1019,1 hPa 0,0 l/m 22,3 km/h (4 Bft) W 261 0 min 0,000 mm 0,0 UV-I 0 W/m 5,0 C -1,7 C 37,0 km/h (5 Bft) 94,02 %
29.11.2015 19:25 6,9 C 88 % 1019,1 hPa 0,0 l/m 20,1 km/h (4 Bft) W 269 0 min 0,000 mm 0,0 UV-I 0 W/m 5,1 C -0,8 C 32,2 km/h (5 Bft) 97,46 %
29.11.2015 19:30 6,9 C 88 % 1019,0 hPa 0,0 l/m 20,7 km/h (4 Bft) W-SW 244 0 min 0,000 mm 0,0 UV-I 0 W/m 5,1 C -1,0 C 32,2 km/h (5 Bft) 100,00 %
29.11.2015 19:35 6,9 C 88 % 1019,1 hPa 0,0 l/m 19,3 km/h (3 Bft) S-SW 213 0 min 0,000 mm 0,0 UV-I 0 W/m 5,1 C -0,5 C 32,2 km/h (5 Bft) 98,29 %
29.11.2015 19:40 7,1 C 88 % 1019,1 hPa 0,0 l/m 18,4 km/h (3 Bft) SW 229 0 min 0,000 mm 0,0 UV-I 0 W/m 5,2 C 0,1 C 37,0 km/h (5 Bft) 97,52 %
29.11.2015 19:45 7,1 C 87 % 1019,2 hPa 0,2 l/m 19,5 km/h (3 Bft) W-SW 243 0 min 0,000 mm 0,0 UV-I 0 W/m 5,1 C -0,3 C 32,2 km/h (5 Bft) 100,00 %
29.11.2015 19:50 7,2 C 87 % 1019,0 hPa 0,0 l/m 19,0 km/h (3 Bft) W-SW 237 0 min 0,000 mm 0,0 UV-I 0 W/m 5,2 C 0,0 C 29,0 km/h (5 Bft) 96,67 %
29.11.2015 19:55 7,2 C 87 % 1019,0 hPa 0,0 l/m 16,4 km/h (3 Bft) W-SW 244 0 min 0,000 mm 0,0 UV-I 0 W/m 5,2 C 1,1 C 27,4 km/h (4 Bft) 100,00 %
29.11.2015 20:00 7,2 C 87 % 1019,0 hPa 0,0 l/m 19,4 km/h (3 Bft) W-SW 237 0 min 0,025 mm 0,0 UV-I 0 W/m 5,2 C -0,1 C 37,0 km/h (5 Bft) 99,07 %
29.11.2015 20:05 7,3 C 87 % 1019,0 hPa 0,0 l/m 16,6 km/h (3 Bft) SW 217 0 min 0,000 mm 0,0 UV-I 0 W/m 5,3 C 1,1 C 30,6 km/h (5 Bft) 99,15 %
29.11.2015 20:10 7,3 C 86 % 1019,0 hPa 0,0 l/m 19,3 km/h (3 Bft) SW 215 0 min 0,000 mm 0,0 UV-I 0 W/m 5,1 C 0,1 C 30,6 km/h (5 Bft) 100,00 %
29.11.2015 20:15 7,4 C 86 % 1019,1 hPa 0,0 l/m 17,6 km/h (3 Bft) W-SW 253 0 min 0,000 mm 0,0 UV-I 0 W/m 5,2 C 0,8 C 27,4 km/h (4 Bft) 99,17 %
29.11.2015 20:20 7,5 C 85 % 1019,1 hPa 0,0 l/m 18,9 km/h (3 Bft) SW 232 0 min 0,000 mm 0,0 UV-I 0 W/m 5,1 C 0,5 C 30,6 km/h (5 Bft) 97,52 %
29.11.2015 20:25 7,5 C 85 % 1019,0 hPa 0,0 l/m 17,2 km/h (3 Bft) W-SW 247 0 min 0,000 mm 0,0 UV-I 0 W/m 5,1 C 1,1 C 27,4 km/h (4 Bft) 99,09 %
29.11.2015 20:30 7,7 C 84 % 1019,1 hPa 0,0 l/m 20,4 km/h (4 Bft) SW 230 0 min 0,000 mm 0,0 UV-I 0 W/m 5,2 C 0,2 C 30,6 km/h (5 Bft) 98,33 %
29.11.2015 20:35 7,7 C 84 % 1019,2 hPa 0,0 l/m 17,7 km/h (3 Bft) SW 235 0 min 0,000 mm 0,0 UV-I 0 W/m 5,2 C 1,2 C 32,2 km/h (5 Bft) 100,00 %
29.11.2015 20:40 7,8 C 83 % 1019,1 hPa 0,0 l/m 17,7 km/h (3 Bft) W-SW 249 0 min 0,000 mm 0,0 UV-I 0 W/m 5,1 C 1,3 C 27,4 km/h (4 Bft) 100,00 %
29.11.2015 20:45 7,9 C 83 % 1019,1 hPa 0,0 l/m 20,5 km/h (4 Bft) SW 232 0 min 0,000 mm 0,0 UV-I 0 W/m 5,2 C 0,4 C 32,2 km/h (5 Bft) 97,52 %
29.11.2015 20:50 7,9 C 83 % 1019,1 hPa 0,0 l/m 19,9 km/h (4 Bft) W-SW 246 0 min 0,000 mm 0,0 UV-I 0 W/m 5,2 C 0,6 C 32,2 km/h (5 Bft) 97,46 %
29.11.2015 20:55 7,9 C 82 % 1019,0 hPa 0,0 l/m 21,5 km/h (4 Bft) SW 215 0 min 0,000 mm 0,0 UV-I 0 W/m 5,0 C 0,1 C 35,4 km/h (5 Bft) 97,44 %
29.11.2015 21:00 8,1 C 81 % 1019,0 hPa 0,0 l/m 23,3 km/h (4 Bft) SW 221 0 min 0,025 mm 0,0 UV-I 0 W/m 5,0 C -0,2 C 41,8 km/h (6 Bft) 97,32 %
29.11.2015 21:05 8,2 C 81 % 1018,9 hPa 0,0 l/m 25,3 km/h (4 Bft) SW 224 0 min 0,000 mm 0,0 UV-I 0 W/m 5,1 C -0,7 C 43,5 km/h (6 Bft) 96,61 %
29.11.2015 21:10 8,3 C 80 % 1019,1 hPa 0,0 l/m 20,7 km/h (4 Bft) W-SW 240 0 min 0,000 mm 0,0 UV-I 0 W/m 5,1 C 0,9 C 41,8 km/h (6 Bft) 95,83 %
29.11.2015 21:15 8,3 C 80 % 1019,0 hPa 0,0 l/m 22,1 km/h (4 Bft) SW 234 0 min 0,000 mm 0,0 UV-I 0 W/m 5,1 C 0,4 C 38,6 km/h (5 Bft) 96,23 %
29.11.2015 21:20 8,3 C 80 % 1019,0 hPa 0,0 l/m 21,1 km/h (4 Bft) W-SW 256 0 min 0,000 mm 0,0 UV-I 0 W/m 5,1 C 0,7 C 32,2 km/h (5 Bft) 97,56 %
29.11.2015 21:25 8,4 C 80 % 1018,9 hPa 0,0 l/m 20,7 km/h (4 Bft) W-SW 243 0 min 0,000 mm 0,0 UV-I 0 W/m 5,2 C 1,0 C 37,0 km/h (5 Bft) 95,76 %
29.11.2015 21:30 8,4 C 79 % 1018,7 hPa 0,0 l/m 21,9 km/h (4 Bft) SW 234 0 min 0,000 mm 0,0 UV-I 0 W/m 5,0 C 0,6 C 33,8 km/h (5 Bft) 95,04 %
29.11.2015 21:35 8,4 C 79 % 1018,6 hPa 0,0 l/m 22,1 km/h (4 Bft) S-SW 211 0 min 0,000 mm 0,0 UV-I 0 W/m 5,0 C 0,5 C 45,1 km/h (6 Bft) 96,58 %
29.11.2015 21:40 8,3 C 79 % 1018,7 hPa 0,0 l/m 20,3 km/h (4 Bft) SW 219 0 min 0,000 mm 0,0 UV-I 0 W/m 4,9 C 1,0 C 37,0 km/h (5 Bft) 97,25 %
29.11.2015 21:45 8,4 C 79 % 1018,6 hPa 0,0 l/m 22,5 km/h (4 Bft) W-SW 247 0 min 0,000 mm 0,0 UV-I 0 W/m 5,0 C 0,4 C 32,2 km/h (5 Bft) 97,37 %
29.11.2015 21:50 8,4 C 79 % 1018,6 hPa 0,0 l/m 21,4 km/h (4 Bft) SW 234 0 min 0,000 mm 0,0 UV-I 0 W/m 5,0 C 0,7 C 35,4 km/h (5 Bft) 100,00 %
29.11.2015 21:55 8,5 C 79 % 1018,6 hPa 0,0 l/m 25,1 km/h (4 Bft) SW 232 0 min 0,000 mm 0,0 UV-I 0 W/m 5,1 C -0,2 C 43,5 km/h (6 Bft) 98,21 %
29.11.2015 22:00 8,6 C 79 % 1018,6 hPa 0,0 l/m 24,0 km/h (4 Bft) SW 232 0 min 0,000 mm 0,0 UV-I 0 W/m 5,2 C 0,2 C 41,8 km/h (6 Bft) 98,35 %
29.11.2015 22:05 8,6 C 78 % 1018,5 hPa 0,0 l/m 22,8 km/h (4 Bft) SW 221 0 min 0,051 mm 0,0 UV-I 0 W/m 5,0 C 0,6 C 32,2 km/h (5 Bft) 98,29 %
29.11.2015 22:10 8,7 C 78 % 1018,6 hPa 0,0 l/m 22,1 km/h (4 Bft) SW 229 0 min 0,000 mm 0,0 UV-I 0 W/m 5,1 C 0,9 C 37,0 km/h (5 Bft) 99,15 %
29.11.2015 22:15 8,7 C 77 % 1018,6 hPa 0,0 l/m 24,4 km/h (4 Bft) SW 229 0 min 0,000 mm 0,0 UV-I 0 W/m 4,9 C 0,2 C 43,5 km/h (6 Bft) 100,00 %
29.11.2015 22:20 8,8 C 77 % 1018,5 hPa 0,0 l/m 26,5 km/h (4 Bft) SW 232 0 min 0,000 mm 0,0 UV-I 0 W/m 5,0 C -0,2 C 46,7 km/h (6 Bft) 97,62 %
29.11.2015 22:25 8,8 C 77 % 1018,5 hPa 0,0 l/m 27,1 km/h (4 Bft) SW 226 0 min 0,000 mm 0,0 UV-I 0 W/m 5,0 C -0,3 C 40,2 km/h (6 Bft) 99,11 %
29.11.2015 22:30 8,8 C 77 % 1018,5 hPa 0,0 l/m 23,6 km/h (4 Bft) S-SW 193 0 min 0,000 mm 0,0 UV-I 0 W/m 5,0 C 0,6 C 38,6 km/h (5 Bft) 98,25 %
29.11.2015 22:35 8,8 C 76 % 1018,5 hPa 0,0 l/m 24,7 km/h (4 Bft) SW 214 0 min 0,000 mm 0,0 UV-I 0 W/m 4,8 C 0,3 C 37,0 km/h (5 Bft) 98,31 %
29.11.2015 22:40 8,9 C 76 % 1018,5 hPa 0,0 l/m 24,4 km/h (4 Bft) SW 217 0 min 0,000 mm 0,0 UV-I 0 W/m 4,9 C 0,5 C 46,7 km/h (6 Bft) 98,39 %
29.11.2015 22:45 8,9 C 76 % 1018,6 hPa 0,0 l/m 21,5 km/h (4 Bft) SW 223 0 min 0,000 mm 0,0 UV-I 0 W/m 4,9 C 1,4 C 33,8 km/h (5 Bft) 97,22 %
29.11.2015 22:50 8,9 C 76 % 1018,5 hPa 0,0 l/m 24,8 km/h (4 Bft) W-SW 241 0 min 0,000 mm 0,0 UV-I 0 W/m 4,9 C 0,4 C 40,2 km/h (6 Bft) 97,52 %
29.11.2015 22:55 8,8 C 77 % 1018,4 hPa 0,0 l/m 23,2 km/h (4 Bft) SW 219 0 min 0,000 mm 0,0 UV-I 0 W/m 5,0 C 0,7 C 37,0 km/h (5 Bft) 99,17 %
29.11.2015 23:00 8,7 C 78 % 1018,4 hPa 0,0 l/m 18,4 km/h (3 Bft) W-SW 250 0 min 0,051 mm 0,0 UV-I 0 W/m 5,1 C 2,2 C 30,6 km/h (5 Bft) 99,11 %
29.11.2015 23:05 8,7 C 78 % 1018,3 hPa 0,0 l/m 23,8 km/h (4 Bft) W-SW 254 0 min 0,000 mm 0,0 UV-I 0 W/m 5,1 C 0,4 C 43,5 km/h (6 Bft) 95,16 %
29.11.2015 23:10 8,7 C 79 % 1018,4 hPa 0,0 l/m 22,5 km/h (4 Bft) W 269 0 min 0,000 mm 0,0 UV-I 0 W/m 5,3 C 0,8 C 37,0 km/h (5 Bft) 97,30 %
29.11.2015 23:15 8,6 C 79 % 1018,6 hPa 0,0 l/m 21,0 km/h (4 Bft) S-SW 207 0 min 0,000 mm 0,0 UV-I 0 W/m 5,2 C 1,1 C 45,1 km/h (6 Bft) 97,32 %
29.11.2015 23:20 8,6 C 79 % 1018,6 hPa 0,0 l/m 21,1 km/h (4 Bft) W-SW 250 0 min 0,000 mm 0,0 UV-I 0 W/m 5,2 C 1,1 C 32,2 km/h (5 Bft) 93,55 %
29.11.2015 23:25 8,5 C 80 % 1018,6 hPa 0,0 l/m 19,4 km/h (3 Bft) SW 225 0 min 0,000 mm 0,0 UV-I 0 W/m 5,3 C 1,6 C 32,2 km/h (5 Bft) 96,58 %
29.11.2015 23:30 8,4 C 81 % 1018,5 hPa 0,0 l/m 19,4 km/h (3 Bft) SW 221 0 min 0,000 mm 0,0 UV-I 0 W/m 5,3 C 1,4 C 33,8 km/h (5 Bft) 96,69 %
29.11.2015 23:35 8,4 C 81 % 1018,4 hPa 0,0 l/m 22,4 km/h (4 Bft) W-SW 247 0 min 0,000 mm 0,0 UV-I 0 W/m 5,3 C 0,4 C 37,0 km/h (5 Bft) 96,58 %
29.11.2015 23:40 8,4 C 81 % 1018,4 hPa 0,0 l/m 26,1 km/h (4 Bft) W 259 0 min 0,000 mm 0,0 UV-I 0 W/m 5,3 C -0,6 C 43,5 km/h (6 Bft) 96,52 %
29.11.2015 23:45 8,5 C 80 % 1018,4 hPa 0,0 l/m 23,3 km/h (4 Bft) SW 216 0 min 0,000 mm 0,0 UV-I 0 W/m 5,3 C 0,3 C 40,2 km/h (6 Bft) 98,31 %
29.11.2015 23:50 8,6 C 80 % 1018,4 hPa 0,0 l/m 26,5 km/h (4 Bft) S-SW 213 0 min 0,000 mm 0,0 UV-I 0 W/m 5,3 C -0,5 C 45,1 km/h (6 Bft) 100,00 %
29.11.2015 23:55 8,5 C 81 % 1018,4 hPa 0,0 l/m 23,0 km/h (4 Bft) W-SW 254 0 min 0,000 mm 0,0 UV-I 0 W/m 5,4 C 0,4 C 40,2 km/h (6 Bft) 98,31 %
_ Min-Zeit 07:05 11:15 23:05 - 07:10 - - - - - - 07:05 03:20 07:10 18:55
Minimum _ 0,9 C 63 % 1018,3 hPa - 2,8 km/h (1 Bft) - - - - - - -1,2 C -6,2 C 4,8 km/h (1 Bft) 93,16 %
_ Max-Zeit 22:40 17:00 01:45 13:35 22:25 - - 10:10 13:10 10:20 10:10 23:55 10:55 12:15 00:30
Maximum _ 8,9 C 91 % 1021,7 hPa 0,2 l/m 27,1 km/h
SW (4 Bft)
- - 5 min 0,102 mm 0,5 UV-I 172 W/m 5,4 C 5,5 C 49,9 km/h
SW (6 Bft)
100,00 %
Durchschnitt _ 4,7 C 84 % 1019,8 hPa #5,0 l/m 15,5 km/h (3 Bft) SW - #5 min. #0,762 mm 0,4 UV-I 66 W/m 2,1 C -0,8 C 26,3 km/h (4 Bft) 98,22 %